Latest Weather Observations for Wagga Wagga

IDN60801

Issued at 8:02 am EST Tuesday 31 May 2016 (issued every 30 minutes, with the page automatically refreshed every 10 minutes)

About weather observations | Map of weather stations | Latest weather observations for NSW | Other Formats
Station Details ID: 072150 Name: WAGGA WAGGA AMO Lat: -35.16 Lon: 147.46 Height: 212.0 m
Data from the previous 72 hours. | See also: Recent months at Wagga Wagga
Date/Time
EST
Temp
°C
App
Temp
°C
Dew
Point
Rel
Hum
%
Delta-T
°C
Wind Press
QNH
hPa
Press
MSL
hPa
Rain
since 9 am
mm
Dir
 
Spd
km/h
Gust
km/h
Spd
kts
Gust
kts
31/08:00am 6.1 2.2 3.2 82 1.2 ESE 13 15 7 8 1029.1 1029.2 0.0
31/07:30am 5.0 0.9 2.3 83 1.1 ESE 13 15 7 8 1028.8 1029.0 0.0
31/07:00am 4.8 0.3 2.3 84 1.0 ESE 15 17 8 9 1028.5 1028.7 0.0
31/06:30am 4.4 -0.1 1.9 84 1.0 ESE 15 17 8 9 1028.2 1028.4 0.0
31/06:00am 3.7 -0.4 2.2 90 0.6 ESE 13 15 7 8 1028.1 1028.3 0.0
31/05:30am 3.7 0.0 2.2 90 0.6 ESE 11 13 6 7 1027.9 1028.1 0.0
31/05:00am 3.9 -0.2 2.4 90 0.6 E 13 13 7 7 1027.7 1027.9 0.0
31/04:30am 3.9 -0.9 2.4 90 0.6 ESE 17 19 9 10 1027.5 1027.6 0.0
31/04:00am 4.5 0.4 2.5 87 0.8 E 13 13 7 7 1027.5 1027.6 0.0
31/03:30am 5.0 1.0 2.8 86 0.9 E 13 13 7 7 1027.5 1027.6 0.0
31/03:00am 5.1 0.7 2.9 86 0.9 E 15 19 8 10 1027.4 1027.5 0.0
31/02:30am 4.1 -0.6 2.9 92 0.5 ESE 17 19 9 10 1027.4 1027.5 0.0
31/02:00am 4.1 1.5 3.4 95 0.3 E 6 7 3 4 1027.5 1027.6 0.0
31/01:30am 4.6 1.4 3.1 90 0.6 E 9 9 5 5 1027.6 1027.7 0.0
31/01:00am 4.5 1.3 3.3 92 0.5 E 9 11 5 6 1027.6 1027.7 0.0
31/12:30am 3.8 1.1 2.8 93 0.4 ESE 6 7 3 4 1027.7 1027.9 0.0
31/12:00am 4.8 2.1 3.6 92 0.5 E 7 9 4 5 1027.7 1027.9 0.0
 
Date/Time
EST
Temp
°C
App
Temp
°C
Dew
Point
Rel
Hum
%
Delta-T
°C
Wind Press
QNH
hPa
Press
MSL
hPa
Rain
since 9 am
mm
Dir
 
Spd
km/h
Gust
km/h
Spd
kts
Gust
kts
30/11:30pm 4.1 1.3 2.9 92 0.5 E 7 9 4 5 1027.8 1028.0 0.0
30/11:00pm 4.5 1.3 3.3 92 0.5 E 9 13 5 7 1027.7 1027.9 0.0
30/10:30pm 5.9 3.4 3.5 84 1.0 SE 6 7 3 4 1027.7 1027.9 0.0
30/10:00pm 5.7 3.6 3.8 87 0.8 SSE 4 9 2 5 1027.6 1027.7 0.0
30/09:30pm 6.2 3.5 3.9 85 1.0 SE 7 7 4 4 1027.5 1027.6 0.0
30/09:00pm 6.1 3.6 4.0 86 0.9 SE 6 7 3 4 1027.3 1027.4 0.0
30/08:30pm 6.6 3.6 4.0 83 1.1 SE 9 11 5 6 1027.0 1027.1 0.0
30/08:00pm 6.5 3.9 4.2 85 1.0 ESE 7 11 4 6 1026.9 1027.0 0.0
30/07:30pm 6.2 3.1 3.6 83 1.1 SE 9 9 5 5 1026.7 1026.8 0.0
30/07:00pm 7.8 4.5 4.4 79 1.5 SE 11 11 6 6 1026.5 1026.6 0.0
30/06:30pm 8.3 5.9 4.2 75 1.8 ESE 6 7 3 4 1026.4 1026.5 0.0
30/06:00pm 8.5 5.9 4.2 74 1.9 ESE 7 7 4 4 1026.2 1026.3 0.0
30/05:30pm 9.6 6.9 3.7 66 2.6 SSE 7 9 4 5 1026.0 1026.1 0.0
30/05:00pm 10.6 7.8 3.3 60 3.2 SE 7 7 4 4 1025.7 1025.8 0.0
30/04:30pm 11.4 8.9 3.5 58 3.5 SE 6 11 3 6 1025.4 1025.5 0.0
30/04:00pm 12.0 10.1 2.9 53 4.0 ESE 2 6 1 3 1025.4 1025.5 0.0
30/03:30pm 12.4 9.7 2.9 52 4.2 NE 6 9 3 5 1025.3 1025.4 0.0
30/03:00pm 12.5 9.7 3.0 52 4.2 ENE 7 11 4 6 1025.2 1025.3 0.0
30/02:30pm 12.0 9.2 2.9 53 4.0 W 7 11 4 6 1025.2 1025.3 0.0
30/02:00pm 12.0 8.8 2.9 53 4.0 WSW 9 11 5 6 1025.2 1025.3 0.0
30/01:30pm 11.9 8.7 2.8 53 4.0 W 9 13 5 7 1025.5 1025.6 0.0
30/01:00pm 11.4 8.8 3.3 57 3.6 W 6 9 3 5 1025.7 1025.8 0.0
30/12:30pm 11.6 8.9 2.4 53 4.0 NNE 6 7 3 4 1026.0 1026.1 0.0
30/12:00pm 11.0 8.5 4.9 66 2.8 ENE 7 13 4 7 1026.3 1026.4 0.0
30/11:30am 10.1 7.3 5.0 70 2.3 ENE 9 13 5 7 1026.6 1026.7 0.0
30/11:00am 9.4 6.2 5.0 74 2.0 E 11 15 6 8 1026.9 1027.0 0.0
30/10:30am 8.2 4.8 4.1 75 1.8 ENE 11 13 6 7 1027.1 1027.2 0.0
30/10:00am 7.9 4.2 4.2 77 1.6 E 13 15 7 8 1027.2 1027.3 0.0
30/09:30am 7.0 3.2 4.0 81 1.3 E 13 15 7 8 1027.1 1027.2 0.0
30/09:00am 5.7 1.8 3.3 84 1.0 E 13 15 7 8 1027.0 1027.1 0.0
30/08:30am 5.2 1.6 3.0 86 0.9 E 11 13 6 7 1026.7 1026.8 0.0
30/08:00am 4.5 1.3 3.0 90 0.6 E 9 11 5 6 1026.4 1026.5 0.0
30/07:30am 3.6 0.0 2.9 95 0.3 ESE 11 13 6 7 1026.0 1026.1 0.0
30/07:00am 3.5 -0.1 3.0 97 0.2 ENE 11 13 6 7 1025.4 1025.5 0.0
30/06:30am 4.1 0.6 3.6 97 0.2 ENE 11 13 6 7 1025.2 1025.3 0.0
30/06:00am 4.5 1.5 4.3 99 0.1 ENE 9 13 5 7 1024.7 1024.8 0.0
30/05:30am 5.1 2.2 4.4 95 0.3 ENE 9 13 5 7 1024.6 1024.7 0.0
30/05:00am 5.5 2.6 4.6 94 0.4 ENE 9 13 5 7 1024.4 1024.5 0.0
30/04:30am 5.7 2.8 4.8 94 0.4 ENE 9 11 5 6 1024.4 1024.5 0.0
30/04:00am 5.4 2.9 4.7 95 0.3 NE 7 11 4 6 1024.1 1024.2 0.0
30/03:30am 5.3 2.8 4.6 95 0.3 ENE 7 9 4 5 1023.8 1024.0 0.0
30/03:00am 5.3 2.8 4.6 95 0.3 E 7 9 4 5 1023.8 1024.0 0.0
30/02:30am 5.3 2.8 4.6 95 0.3 ESE 7 7 4 4 1023.9 1024.1 0.0
30/02:00am 5.6 4.5 5.1 97 0.2 CALM 0 7 0 4 1023.9 1024.1 0.0
30/01:30am 5.4 4.2 4.7 95 0.3 CALM 0 0 0 0 1023.6 1023.7 0.0
30/01:00am 5.5 4.0 4.8 95 0.3 ESE 2 9 1 5 1023.5 1023.6 0.0
30/12:30am 5.2 3.6 4.7 97 0.2 ESE 2 7 1 4 1023.4 1023.5 0.0
30/12:00am 5.5 3.2 4.6 94 0.4 E 6 9 3 5 1023.4 1023.5 0.0
 
Date/Time
EST
Temp
°C
App
Temp
°C
Dew
Point
Rel
Hum
%
Delta-T
°C
Wind Press
QNH
hPa
Press
MSL
hPa
Rain
since 9 am
mm
Dir
 
Spd
km/h
Gust
km/h
Spd
kts
Gust
kts
29/11:30pm 5.7 4.5 4.8 94 0.4 CALM 0 0 0 0 1023.3 1023.4 0.0
29/11:00pm 6.1 4.6 5.0 93 0.5 SSE 2 7 1 4 1023.2 1023.3 0.0
29/10:30pm 6.5 4.2 5.6 94 0.4 SSW 7 9 4 5 1023.2 1023.3 0.0
29/10:16pm 7.0 6.0 5.7 91 0.6 CALM 0 0 0 0 1023.1 1023.2 0.0
29/10:00pm 7.5 6.6 6.2 91 0.6 CALM 0 0 0 0 1023.2 1023.3 0.0
29/09:30pm 8.2 6.6 6.2 87 0.9 E 4 7 2 4 1023.2 1023.3 0.0
29/09:00pm 8.5 6.6 6.6 88 0.9 ENE 6 7 3 4 1023.2 1023.3 0.0
29/08:30pm 8.4 7.5 6.2 86 1.0 CALM 0 6 0 3 1022.9 1023.0 0.0
29/08:00pm 8.5 6.5 6.1 85 1.1 NE 6 7 3 4 1022.6 1022.7 0.0
29/07:30pm 8.5 6.3 6.1 85 1.1 ENE 7 9 4 5 1022.4 1022.5 0.0
29/07:00pm 8.5 5.9 6.1 85 1.1 ESE 9 11 5 6 1022.1 1022.2 0.0
29/06:30pm 8.5 5.5 5.9 84 1.2 E 11 15 6 8 1021.7 1021.8 0.0
29/06:00pm 8.9 6.7 6.1 82 1.3 ESE 7 11 4 6 1021.3 1021.4 0.0
29/05:30pm 9.5 7.3 6.3 80 1.5 E 7 9 4 5 1021.2 1021.3 0.0
29/05:00pm 9.6 7.4 6.4 80 1.5 NE 7 9 4 5 1021.0 1021.1 0.0
29/04:30pm 9.8 7.2 6.2 78 1.7 ENE 9 11 5 6 1020.7 1020.8 0.0
29/04:00pm 10.0 7.4 6.1 77 1.8 ENE 9 11 5 6 1020.6 1020.7 0.0
29/03:30pm 9.8 6.8 6.2 78 1.7 ENE 11 13 6 7 1020.4 1020.5 0.0
29/03:00pm 9.5 6.9 6.3 80 1.5 E 9 11 5 6 1020.4 1020.5 0.0
29/02:30pm 9.7 6.4 6.5 80 1.5 ESE 13 19 7 10 1020.2 1020.3 0.0
29/02:00pm 10.9 8.3 6.2 73 2.2 SW 9 15 5 8 1020.1 1020.2 0.0
29/01:30pm 9.4 6.8 5.9 79 1.6 WNW 9 13 5 7 1020.2 1020.3 0.0
29/01:20pm 8.8 6.6 6.2 84 1.2 W 7 11 4 6 1020.3 1020.4 0.0
29/01:00pm 9.0 7.0 6.4 84 1.2 WSW 6 9 3 5 1020.3 1020.4 0.0
29/12:30pm 8.0 5.8 6.0 87 0.9 WSW 7 11 4 6 1020.3 1020.4 0.0
29/12:00pm 7.5 5.4 6.6 94 0.4 WSW 7 11 4 6 1020.6 1020.7 0.0
29/11:36am 6.5 3.9 6.1 97 0.2 WNW 9 13 5 7 1020.9 1021.0 0.0
29/11:30am 6.3 3.3 6.1 99 0.1 W 11 15 6 8 1020.9 1021.0 0.0
29/11:00am 5.9 3.8 5.9 100 0.0 WNW 6 11 3 6 1020.9 1021.0 0.0
29/10:30am 5.3 3.9 5.3 100 0.0 WNW 2 7 1 4 1021.0 1021.1 0.0
29/10:00am 5.2 2.8 5.2 100 0.0 W 7 9 4 5 1020.7 1020.8 0.0
29/09:30am 5.0 2.2 5.0 100 0.0 NW 9 11 5 6 1020.5 1020.6 0.0
29/09:00am 4.6 1.7 4.6 100 0.0 NW 9 11 5 6 1020.2 1020.3 0.4
29/08:30am 4.0 1.3 3.8 99 0.1 NW 7 11 4 6 1019.7 1019.7 0.4
29/08:00am 4.1 1.7 4.1 100 0.0 NNW 6 7 3 4 1019.3 1019.3 0.4
29/07:30am 3.8 1.1 3.8 100 0.0 NNW 7 9 4 5 1019.1 1019.1 0.4
29/07:00am 3.4 0.6 3.2 99 0.1 N 7 7 4 4 1018.6 1018.7 0.4
29/06:30am 3.4 0.8 3.4 100 0.0 NW 6 7 3 4 1018.3 1018.4 0.4
29/06:00am 4.1 2.8 4.1 100 0.0 CALM 0 0 0 0 1018.0 1018.1 0.4
29/05:30am 4.2 1.7 3.7 97 0.2 NE 6 7 3 4 1017.7 1017.8 0.4
29/05:00am 4.1 2.8 4.1 100 0.0 CALM 0 0 0 0 1017.3 1017.4 0.4
29/04:30am 4.3 2.6 4.1 99 0.1 N 2 7 1 4 1017.1 1017.2 0.4
29/04:13am 3.6 2.2 3.4 99 0.1 CALM 0 0 0 0 1016.9 1017.0 0.2
29/04:00am 3.9 2.6 3.9 100 0.0 CALM 0 0 0 0 1016.7 1016.8 0.2
29/03:35am 4.8 1.9 4.6 99 0.1 NW 9 11 5 6 1016.8 1016.9 0.2
29/03:30am 4.8 1.9 4.6 99 0.1 NW 9 11 5 6 1016.8 1016.9 0.2
29/03:00am 5.0 2.5 4.5 97 0.2 NW 7 9 4 5 1016.7 1016.8 0.2
29/02:30am 4.9 1.2 4.7 99 0.1 WNW 13 15 7 8 1016.5 1016.6 0.2
29/02:00am 5.1 2.2 4.6 97 0.2 NNW 9 11 5 6 1016.3 1016.4 0.2
29/01:30am 5.8 2.6 4.9 94 0.4 WNW 11 13 6 7 1016.1 1016.2 0.2
29/01:00am 5.4 1.8 4.9 97 0.2 NW 13 15 7 8 1016.1 1016.2 0.2
29/12:30am 6.8 4.0 5.0 88 0.8 NW 9 13 5 7 1015.8 1015.8 0.2
29/12:00am 6.6 3.4 5.3 91 0.6 WNW 11 17 6 9 1015.5 1015.5 0.2
 
Date/Time
EST
Temp
°C
App
Temp
°C
Dew
Point
Rel
Hum
%
Delta-T
°C
Wind Press
QNH
hPa
Press
MSL
hPa
Rain
since 9 am
mm
Dir
 
Spd
km/h
Gust
km/h
Spd
kts
Gust
kts
28/11:30pm 6.8 4.0 5.2 89 0.7 W 9 13 5 7 1015.3 1015.3 0.2
28/11:00pm 5.4 3.3 4.0 91 0.6 WNW 4 7 2 4 1015.2 1015.2 0.2
28/10:30pm 7.2 5.8 5.4 88 0.8 NW 2 6 1 3 1015.1 1015.1 0.2
28/10:00pm 7.6 4.8 5.1 84 1.1 W 9 13 5 7 1014.8 1014.8 0.2
28/09:30pm 7.2 6.2 5.4 88 0.8 CALM 0 0 0 0 1014.7 1014.7 0.2
28/09:00pm 7.9 4.7 5.2 83 1.2 W 11 13 6 7 1014.5 1014.5 0.2
28/08:30pm 8.6 5.4 5.3 80 1.5 W 11 13 6 7 1014.4 1014.4 0.2
28/08:00pm 8.7 5.6 5.4 80 1.5 W 11 13 6 7 1014.2 1014.2 0.2
28/07:30pm 9.0 5.5 5.3 77 1.7 W 13 15 7 8 1013.8 1013.9 0.2
28/07:00pm 9.4 6.0 5.7 78 1.7 W 13 15 7 8 1013.4 1013.5 0.2
28/06:30pm 9.9 6.9 5.8 75 1.9 W 11 13 6 7 1013.0 1013.1 0.2
28/06:00pm 10.5 6.7 5.8 72 2.2 W 15 22 8 12 1012.7 1012.8 0.2
28/05:30pm 10.5 6.8 6.3 75 2.0 WSW 15 17 8 9 1012.2 1012.3 0.2
28/05:00pm 10.7 7.5 7.0 78 1.8 WNW 13 15 7 8 1011.6 1011.6 0.2
28/04:30pm 12.0 8.9 7.1 72 2.4 W 13 15 7 8 1011.1 1011.1 0.2
28/04:00pm 11.7 8.1 6.7 71 2.4 WNW 15 19 8 10 1010.8 1010.8 0.2
28/03:30pm 12.0 8.8 6.8 70 2.5 W 13 19 7 10 1010.3 1010.3 0.2
28/03:00pm 11.7 8.9 7.0 73 2.3 WNW 11 15 6 8 1009.8 1009.8 0.2
28/02:30pm 11.8 9.2 6.1 68 2.7 W 9 13 5 7 1009.4 1009.4 0.2
28/02:00pm 11.3 7.6 6.5 72 2.3 WSW 15 20 8 11 1009.3 1009.3 0.2
28/01:30pm 11.5 8.3 7.0 74 2.2 WSW 13 17 7 9 1009.4 1009.4 0.2
28/01:00pm 9.9 5.8 7.8 87 1.0 WSW 19 26 10 14 1009.3 1009.3 0.2
28/12:30pm 10.7 7.5 6.7 76 1.9 WSW 13 17 7 9 1009.0 1009.1 0.2
28/12:00pm 10.6 7.6 6.2 74 2.1 WSW 11 13 6 7 1008.7 1008.8 0.2
28/11:30am 9.7 6.1 6.8 82 1.4 W 15 19 8 10 1008.8 1008.9 0.2
28/11:00am 9.9 6.8 7.2 83 1.3 WNW 13 15 7 8 1009.0 1009.1 0.2
28/10:32am 9.5 6.7 7.0 84 1.2 W 11 15 6 8 1008.8 1008.9 0.2
28/10:30am 9.4 6.6 7.1 85 1.1 W 11 15 6 8 1008.8 1008.9 0.2
28/10:18am 9.2 6.4 7.1 87 1.0 WSW 11 15 6 8 1008.8 1008.9 0.2
28/10:00am 8.9 5.9 7.7 92 0.6 W 13 17 7 9 1008.7 1008.8 0.2
28/09:30am 8.8 6.3 8.0 95 0.4 WSW 11 13 6 7 1008.5 1008.6 0.2
28/09:00am 8.0 7.4 7.6 97 0.2 CALM 0 0 0 0 1008.3 1008.4 10.2
28/08:30am 7.8 7.2 7.4 97 0.2 CALM 0 0 0 0 1008.0 1008.1 9.4

Other Formats:

Comma delimited format used in spreadsheet applications
http://www.bom.gov.au/fwo/IDN60801/IDN60801.94910.axf

JavaScript Object Notation format (JSON) in row-major order
http://www.bom.gov.au/fwo/IDN60801/IDN60801.94910.json